Time;durP1;ratioP1;P1;durP2;ratioP2;P2;SDS_P1;SDS_P2;PMS_P1;PMS_P2;Temp;Humidity;BMP_temperature;BMP_pressure;BME280_temperature;BME280_humidity;BME280_pressure;Samples;Min_cycle;Max_cycle;Signal;HPM_P1;HPM_P2
2023/05/16 00:00:47;;;;;;;21.30;2.10;;;;;;;;;;5122822;27;20048;-79
2023/05/16 00:03:14;;;;;;;13.85;2.30;;;;;;;;;;5111413;28;20092;-77
2023/05/16 00:05:40;;;;;;;15.10;1.60;;;;;;;;;;5100017;28;20039;-82
2023/05/16 00:08:06;;;;;;;14.40;2.17;;;;;;;;;;5129790;27;20085;-78
2023/05/16 00:10:32;;;;;;;14.35;2.38;;;;;;;;;;5123532;27;20038;-79
2023/05/16 00:13:00;;;;;;;16.70;2.20;;;;;;;;;;5135298;27;20047;-80
2023/05/16 00:15:28;;;;;;;9.90;1.70;;;;;;;;;;5121294;27;20066;-82
2023/05/16 00:17:57;;;;;;;14.38;2.85;;;;;;;;;;5120608;27;20075;-77
2023/05/16 00:20:23;;;;;;;11.27;2.42;;;;;;;;;;5133139;27;20506;-81
2023/05/16 00:22:50;;;;;;;14.45;2.10;;;;;;;;;;5113694;28;20046;-77
2023/05/16 00:25:17;;;;;;;11.00;1.90;;;;;;;;;;5130660;27;20064;-81
2023/05/16 00:27:43;;;;;;;12.07;1.90;;;;;;;;;;5134282;27;20045;-76
2023/05/16 00:30:09;;;;;;;11.55;2.17;;;;;;;;;;5134901;27;20484;-80
2023/05/16 00:32:36;;;;;;;13.15;2.40;;;;;;;;;;5114845;28;20054;-81
2023/05/16 00:35:02;;;;;;;18.92;2.28;;;;;;;;;;5115550;27;20039;-80
2023/05/16 00:37:28;;;;;;;14.27;2.00;;;;;;;;;;5130068;27;20043;-82
2023/05/16 00:39:54;;;;;;;10.65;1.83;;;;;;;;;;5135545;27;20039;-80
2023/05/16 00:42:20;;;;;;;15.60;2.40;;;;;;;;;;5135365;27;20047;-82
2023/05/16 00:44:47;;;;;;;19.60;2.30;;;;;;;;;;5135120;27;20031;-82
2023/05/16 00:47:13;;;;;;;12.88;1.95;;;;;;;;;;5133772;27;20042;-82
2023/05/16 00:49:39;;;;;;;15.02;2.10;;;;;;;;;;5135384;27;20039;-82
2023/05/16 00:52:06;;;;;;;11.85;1.98;;;;;;;;;;5134101;27;20039;-82
2023/05/16 00:54:33;;;;;;;15.77;2.47;;;;;;;;;;5147107;27;20059;-82
2023/05/16 00:57:00;;;;;;;12.85;2.92;;;;;;;;;;5131968;27;20042;-82
2023/05/16 00:59:26;;;;;;;15.57;2.88;;;;;;;;;;5121697;27;20039;-82
2023/05/16 01:01:52;;;;;;;13.15;3.67;;;;;;;;;;5134791;27;20043;-82
2023/05/16 01:04:19;;;;;;;8.13;2.50;;;;;;;;;;5116299;27;20043;-82
2023/05/16 01:06:45;;;;;;;16.60;2.40;;;;;;;;;;5155078;27;20073;-82
2023/05/16 01:09:12;;;;;;;17.58;2.72;;;;;;;;;;5125647;27;20526;-82
2023/05/16 01:11:38;;;;;;;13.82;2.58;;;;;;;;;;5130805;27;20552;-81
2023/05/16 01:14:04;;;;;;;15.35;2.22;;;;;;;;;;5126303;27;20034;-81
2023/05/16 01:16:38;;;;;;;15.15;2.72;;;;;;;;;;5150271;27;20046;-83
2023/05/16 01:19:23;;;;;;;14.10;2.30;;;;;;;;;;5127660;27;20471;-82
2023/05/16 01:22:01;;;;;;;13.90;2.17;;;;;;;;;;5122055;27;20091;-82
2023/05/16 01:24:47;;;;;;;15.48;2.47;;;;;;;;;;5144087;27;20506;-88
2023/05/16 01:27:14;;;;;;;12.23;2.05;;;;;;;;;;5075110;27;20093;-87
2023/05/16 01:29:40;;;;;;;11.00;2.65;;;;;;;;;;5128591;27;20376;-88
2023/05/16 01:32:06;;;;;;;12.18;2.80;;;;;;;;;;5119566;27;20080;-88
2023/05/16 01:34:33;;;;;;;11.35;2.50;;;;;;;;;;5119044;27;20045;-88
2023/05/16 01:37:10;;;;;;;11.75;2.35;;;;;;;;;;5118617;27;20111;-88
2023/05/16 01:40:09;;;;;;;9.70;2.00;;;;;;;;;;5135286;27;20069;-87
2023/05/16 01:42:37;;;;;;;15.23;2.63;;;;;;;;;;5054832;27;20091;-82
2023/05/16 01:45:04;;;;;;;11.98;2.45;;;;;;;;;;5124836;27;20391;-88
2023/05/16 01:47:32;;;;;;;14.32;2.20;;;;;;;;;;5118129;27;20568;-88
2023/05/16 01:50:07;;;;;;;11.13;2.15;;;;;;;;;;5134601;27;20457;-87
2023/05/16 01:52:36;;;;;;;13.75;2.97;;;;;;;;;;5135422;27;20054;-83
2023/05/16 01:55:03;;;;;;;10.30;2.00;;;;;;;;;;5122535;27;20103;-83
2023/05/16 01:57:30;;;;;;;11.80;2.20;;;;;;;;;;5153554;27;20037;-83
2023/05/16 01:59:58;;;;;;;13.10;2.13;;;;;;;;;;5134502;27;20042;-83
2023/05/16 02:02:24;;;;;;;16.38;2.42;;;;;;;;;;5124481;27;20047;-82
2023/05/16 02:04:50;;;;;;;11.52;2.40;;;;;;;;;;5119250;27;20038;-83
2023/05/16 02:07:16;;;;;;;13.55;2.42;;;;;;;;;;5118944;27;20043;-82
2023/05/16 02:09:42;;;;;;;8.88;2.13;;;;;;;;;;5135667;27;20038;-82
2023/05/16 02:12:08;;;;;;;11.05;2.47;;;;;;;;;;5118906;27;20038;-83
2023/05/16 02:14:35;;;;;;;13.65;3.28;;;;;;;;;;5135495;27;20038;-82
2023/05/16 02:17:01;;;;;;;12.25;2.20;;;;;;;;;;5136074;27;20051;-82
2023/05/16 02:19:27;;;;;;;13.52;2.60;;;;;;;;;;5135068;27;20034;-82
2023/05/16 02:21:53;;;;;;;8.18;1.85;;;;;;;;;;5128152;28;20086;-87
2023/05/16 02:24:19;;;;;;;12.88;2.13;;;;;;;;;;5131651;27;20090;-82
2023/05/16 02:26:46;;;;;;;13.93;2.00;;;;;;;;;;5156213;27;20038;-82
2023/05/16 02:29:12;;;;;;;16.27;2.38;;;;;;;;;;5135521;27;20049;-82
2023/05/16 02:31:38;;;;;;;10.35;2.47;;;;;;;;;;5147949;27;20083;-82
2023/05/16 02:34:04;;;;;;;9.70;2.30;;;;;;;;;;5135591;27;20084;-82
2023/05/16 02:36:30;;;;;;;16.15;2.15;;;;;;;;;;5122726;28;20399;-82
2023/05/16 02:38:56;;;;;;;10.55;1.92;;;;;;;;;;5136404;27;20039;-82
2023/05/16 02:41:23;;;;;;;12.48;2.33;;;;;;;;;;5135474;27;20154;-82
2023/05/16 02:43:49;;;;;;;12.65;2.67;;;;;;;;;;5132794;27;20379;-82
2023/05/16 02:46:32;;;;;;;15.95;2.15;;;;;;;;;;5135086;27;20091;-88
2023/05/16 02:48:58;;;;;;;16.33;2.60;;;;;;;;;;5135572;27;20047;-87
2023/05/16 02:51:25;;;;;;;10.93;2.67;;;;;;;;;;5153643;27;20072;-87
2023/05/16 02:53:52;;;;;;;10.77;2.65;;;;;;;;;;5128288;28;20055;-88
2023/05/16 02:56:18;;;;;;;11.73;1.83;;;;;;;;;;5114863;28;20053;-88
2023/05/16 02:58:47;;;;;;;15.93;2.30;;;;;;;;;;5131449;28;20039;-87
2023/05/16 03:01:14;;;;;;;12.48;2.38;;;;;;;;;;5132025;28;20092;-87
2023/05/16 03:03:40;;;;;;;15.55;2.65;;;;;;;;;;5129087;28;20040;-87
2023/05/16 03:06:06;;;;;;;10.48;2.45;;;;;;;;;;5130714;28;20039;-88
2023/05/16 03:08:32;;;;;;;12.68;2.22;;;;;;;;;;5117365;28;20122;-87
2023/05/16 03:10:58;;;;;;;10.70;1.88;;;;;;;;;;5113443;28;20036;-87
2023/05/16 03:13:24;;;;;;;13.27;2.42;;;;;;;;;;5111041;28;20177;-87
2023/05/16 03:15:51;;;;;;;14.63;2.42;;;;;;;;;;5124419;28;20054;-87
2023/05/16 03:18:17;;;;;;;19.45;3.25;;;;;;;;;;5121648;28;20388;-87
2023/05/16 03:20:43;;;;;;;16.60;2.30;;;;;;;;;;5114265;28;20043;-87
2023/05/16 03:23:09;;;;;;;9.52;2.10;;;;;;;;;;5126606;27;20051;-82
2023/05/16 03:25:36;;;;;;;15.88;2.60;;;;;;;;;;5129857;27;20066;-83
2023/05/16 03:28:03;;;;;;;15.27;2.35;;;;;;;;;;5135736;27;20031;-83
2023/05/16 03:30:29;;;;;;;11.18;2.90;;;;;;;;;;5135193;27;20068;-87
2023/05/16 03:32:55;;;;;;;10.52;2.17;;;;;;;;;;5124889;27;20043;-87
2023/05/16 03:35:22;;;;;;;12.88;2.20;;;;;;;;;;5120513;27;20038;-83
2023/05/16 03:37:48;;;;;;;8.75;2.75;;;;;;;;;;5135877;27;20571;-83
2023/05/16 03:40:14;;;;;;;12.65;2.20;;;;;;;;;;5136332;27;20049;-83
2023/05/16 03:42:40;;;;;;;10.40;1.80;;;;;;;;;;5135051;27;20539;-82
2023/05/16 03:45:06;;;;;;;11.27;2.60;;;;;;;;;;5111099;28;20395;-82
2023/05/16 03:47:32;;;;;;;13.07;2.40;;;;;;;;;;5133570;27;20073;-82
2023/05/16 03:49:59;;;;;;;16.30;2.50;;;;;;;;;;5129688;27;20038;-82
2023/05/16 03:52:25;;;;;;;8.98;2.42;;;;;;;;;;5109311;27;20047;-82
2023/05/16 03:54:51;;;;;;;10.20;2.53;;;;;;;;;;5132408;27;20063;-82
2023/05/16 03:57:17;;;;;;;14.32;2.33;;;;;;;;;;5123547;27;20048;-82
2023/05/16 03:59:43;;;;;;;10.07;2.47;;;;;;;;;;5128757;27;20042;-83
2023/05/16 04:02:09;;;;;;;14.73;2.72;;;;;;;;;;5107108;27;20369;-83
2023/05/16 04:04:35;;;;;;;11.82;2.80;;;;;;;;;;5133127;27;20074;-83
2023/05/16 04:07:02;;;;;;;8.32;2.40;;;;;;;;;;5128263;27;20039;-83
2023/05/16 04:09:28;;;;;;;11.93;2.30;;;;;;;;;;5135868;27;20035;-83
2023/05/16 04:11:55;;;;;;;17.65;2.40;;;;;;;;;;5134855;27;20517;-83
2023/05/16 04:14:21;;;;;;;12.65;2.53;;;;;;;;;;5116178;27;20045;-83
2023/05/16 04:16:47;;;;;;;12.35;2.22;;;;;;;;;;5122130;27;20487;-83
2023/05/16 04:19:14;;;;;;;14.70;2.35;;;;;;;;;;5129884;27;20035;-83
2023/05/16 04:21:40;;;;;;;10.10;2.15;;;;;;;;;;5125366;27;20046;-83
2023/05/16 04:24:07;;;;;;;13.10;2.50;;;;;;;;;;5119085;27;20044;-84
2023/05/16 04:26:33;;;;;;;12.30;1.95;;;;;;;;;;5125399;27;20044;-83
2023/05/16 04:28:59;;;;;;;12.10;1.98;;;;;;;;;;5125940;27;20050;-83
2023/05/16 04:31:25;;;;;;;10.05;2.00;;;;;;;;;;5134346;27;20035;-83
2023/05/16 04:33:52;;;;;;;11.50;2.10;;;;;;;;;;5133848;27;20053;-83
2023/05/16 04:36:18;;;;;;;13.05;1.98;;;;;;;;;;5130414;27;20035;-83
2023/05/16 04:38:45;;;;;;;10.95;2.17;;;;;;;;;;5096434;28;20040;-84
2023/05/16 04:41:12;;;;;;;10.57;1.80;;;;;;;;;;5131074;27;20114;-84
2023/05/16 04:43:39;;;;;;;13.93;1.95;;;;;;;;;;5134182;27;20039;-84
2023/05/16 04:46:06;;;;;;;13.27;1.65;;;;;;;;;;5121254;27;20031;-84
2023/05/16 04:48:32;;;;;;;8.82;1.90;;;;;;;;;;5101305;27;20040;-84
2023/05/16 04:50:58;;;;;;;9.77;1.90;;;;;;;;;;5113596;28;20046;-84
2023/05/16 04:53:24;;;;;;;11.30;1.90;;;;;;;;;;5133722;27;20074;-84
2023/05/16 04:55:51;;;;;;;7.88;1.90;;;;;;;;;;5122224;27;20085;-84
2023/05/16 04:58:17;;;;;;;13.02;1.80;;;;;;;;;;5134551;27;20099;-87
2023/05/16 05:00:43;;;;;;;10.27;1.50;;;;;;;;;;5130150;27;20514;-87
2023/05/16 05:03:09;;;;;;;8.23;1.80;;;;;;;;;;5131685;27;20043;-87
2023/05/16 05:05:35;;;;;;;9.75;1.85;;;;;;;;;;5121056;27;20108;-87
2023/05/16 05:08:01;;;;;;;10.73;2.50;;;;;;;;;;5118601;27;20510;-87
2023/05/16 05:10:27;;;;;;;8.88;1.60;;;;;;;;;;5118896;27;20099;-87
2023/05/16 05:12:53;;;;;;;11.00;1.80;;;;;;;;;;5120935;27;20047;-87
2023/05/16 05:15:19;;;;;;;9.00;1.77;;;;;;;;;;5133447;27;20457;-87
2023/05/16 05:17:45;;;;;;;8.63;1.70;;;;;;;;;;5121571;27;20118;-88
2023/05/16 05:20:12;;;;;;;10.80;2.10;;;;;;;;;;5132894;27;20046;-87
2023/05/16 05:22:38;;;;;;;10.38;1.58;;;;;;;;;;5116106;27;20403;-87
2023/05/16 05:25:05;;;;;;;8.93;1.55;;;;;;;;;;5124007;27;20537;-84
2023/05/16 05:27:31;;;;;;;7.65;1.58;;;;;;;;;;5113819;27;20373;-84
2023/05/16 05:29:57;;;;;;;8.02;1.50;;;;;;;;;;5112847;28;20112;-84
2023/05/16 05:32:23;;;;;;;9.10;1.55;;;;;;;;;;5126885;27;20075;-87
2023/05/16 05:34:49;;;;;;;11.15;2.00;;;;;;;;;;5126168;27;20051;-86
2023/05/16 05:37:15;;;;;;;11.93;2.33;;;;;;;;;;5130397;27;20476;-85
2023/05/16 05:39:41;;;;;;;9.82;1.80;;;;;;;;;;5133294;27;20395;-84
2023/05/16 05:42:07;;;;;;;8.10;1.50;;;;;;;;;;5132710;27;20511;-85
2023/05/16 05:44:34;;;;;;;11.68;3.53;;;;;;;;;;5121850;27;20050;-86
2023/05/16 05:47:00;;;;;;;10.63;1.77;;;;;;;;;;5126315;27;20051;-86
2023/05/16 05:49:26;;;;;;;8.55;1.90;;;;;;;;;;5083637;28;20395;-87
2023/05/16 05:51:53;;;;;;;10.63;1.50;;;;;;;;;;5096226;27;20569;-85
2023/05/16 05:54:19;;;;;;;4.60;1.30;;;;;;;;;;5119967;27;20106;-81
2023/05/16 05:56:45;;;;;;;11.80;1.40;;;;;;;;;;5118746;27;20130;-78
2023/05/16 05:59:11;;;;;;;9.95;2.03;;;;;;;;;;5113820;27;20093;-82
2023/05/16 06:01:38;;;;;;;7.20;1.20;;;;;;;;;;5108757;28;20044;-80
2023/05/16 06:04:04;;;;;;;7.18;1.42;;;;;;;;;;5113035;27;20051;-80
2023/05/16 06:06:31;;;;;;;17.77;1.63;;;;;;;;;;5125278;27;20472;-77
2023/05/16 06:08:57;;;;;;;7.40;1.55;;;;;;;;;;5119374;27;20043;-85
2023/05/16 06:11:26;;;;;;;6.88;1.40;;;;;;;;;;5125144;27;20031;-78
2023/05/16 06:13:52;;;;;;;5.60;1.15;;;;;;;;;;5130867;27;20038;-78
2023/05/16 06:16:19;;;;;;;6.47;1.63;;;;;;;;;;5125054;27;20487;-77
2023/05/16 06:18:45;;;;;;;6.00;1.10;;;;;;;;;;5133403;27;20050;-83
2023/05/16 06:21:11;;;;;;;9.70;1.50;;;;;;;;;;5111996;28;20381;-85
2023/05/16 06:23:37;;;;;;;5.82;1.05;;;;;;;;;;5124221;28;20246;-86
2023/05/16 06:26:04;;;;;;;7.85;1.30;;;;;;;;;;5127438;28;20040;-81
2023/05/16 06:28:30;;;;;;;6.43;1.20;;;;;;;;;;5121901;28;20042;-86
2023/05/16 06:30:56;;;;;;;4.90;1.20;;;;;;;;;;5096699;28;20043;-87
2023/05/16 06:33:23;;;;;;;7.05;1.10;;;;;;;;;;5124713;28;20050;-78
2023/05/16 06:35:49;;;;;;;7.00;1.10;;;;;;;;;;5111111;28;20093;-78
2023/05/16 06:38:15;;;;;;;7.38;1.30;;;;;;;;;;5109124;28;20119;-77
2023/05/16 06:40:41;;;;;;;8.60;1.30;;;;;;;;;;5112318;28;20042;-79
2023/05/16 06:43:07;;;;;;;9.30;1.25;;;;;;;;;;5102974;28;20500;-77
2023/05/16 06:45:33;;;;;;;6.32;1.20;;;;;;;;;;5112238;28;20074;-78
2023/05/16 06:48:00;;;;;;;11.40;1.60;;;;;;;;;;5109031;28;20470;-81
2023/05/16 06:50:26;;;;;;;8.23;1.40;;;;;;;;;;5133167;28;20039;-78
2023/05/16 06:52:52;;;;;;;6.70;1.42;;;;;;;;;;5115877;28;20039;-78
2023/05/16 06:55:18;;;;;;;6.97;1.35;;;;;;;;;;5133557;27;20066;-82
2023/05/16 06:57:44;;;;;;;8.15;1.25;;;;;;;;;;5129602;27;20046;-79
2023/05/16 07:00:11;;;;;;;6.28;1.15;;;;;;;;;;5119853;27;20555;-81
2023/05/16 07:02:37;;;;;;;6.07;1.23;;;;;;;;;;5145532;27;20130;-77
2023/05/16 07:05:03;;;;;;;7.18;1.35;;;;;;;;;;5139100;27;20046;-77
2023/05/16 07:07:29;;;;;;;5.75;1.20;;;;;;;;;;5133699;27;20035;-82
2023/05/16 07:09:55;;;;;;;6.95;1.05;;;;;;;;;;5145516;27;20403;-81
2023/05/16 07:12:21;;;;;;;7.20;1.13;;;;;;;;;;5142430;27;20039;-87
2023/05/16 07:14:47;;;;;;;4.68;1.10;;;;;;;;;;5139463;27;20169;-84
2023/05/16 07:17:14;;;;;;;8.02;1.25;;;;;;;;;;5125689;27;20414;-85
2023/05/16 07:19:40;;;;;;;9.50;1.48;;;;;;;;;;5123371;27;20507;-85
2023/05/16 07:22:06;;;;;;;6.95;1.02;;;;;;;;;;5137801;27;20039;-81
2023/05/16 07:24:32;;;;;;;9.10;1.50;;;;;;;;;;5139908;27;20031;-84
2023/05/16 07:26:58;;;;;;;4.35;1.00;;;;;;;;;;5122509;27;20046;-83
2023/05/16 07:29:25;;;;;;;8.63;1.33;;;;;;;;;;5126210;27;20042;-85
2023/05/16 07:31:51;;;;;;;7.20;1.33;;;;;;;;;;5137819;27;20042;-85
2023/05/16 07:34:17;;;;;;;6.72;1.33;;;;;;;;;;5141242;27;20118;-85
2023/05/16 07:36:43;;;;;;;5.10;1.20;;;;;;;;;;5109931;27;20037;-86
2023/05/16 07:39:09;;;;;;;5.97;1.10;;;;;;;;;;5140341;27;20039;-85
2023/05/16 07:41:35;;;;;;;5.43;1.13;;;;;;;;;;5141995;27;20043;-86
2023/05/16 07:44:01;;;;;;;6.47;1.33;;;;;;;;;;5137899;27;20073;-87
2023/05/16 07:46:27;;;;;;;8.20;1.92;;;;;;;;;;5141931;27;20482;-87
2023/05/16 07:48:53;;;;;;;8.63;1.20;;;;;;;;;;5125124;27;20035;-83
2023/05/16 07:51:20;;;;;;;8.27;1.20;;;;;;;;;;5143937;27;20391;-85
2023/05/16 07:53:46;;;;;;;6.03;1.20;;;;;;;;;;5109615;27;20034;-88
2023/05/16 07:56:12;;;;;;;8.30;1.20;;;;;;;;;;5156549;27;20055;-84
2023/05/16 07:58:38;;;;;;;5.32;1.33;;;;;;;;;;5124054;27;20491;-85
2023/05/16 08:01:05;;;;;;;11.25;1.65;;;;;;;;;;5120580;27;20049;-83
2023/05/16 08:03:31;;;;;;;8.43;1.30;;;;;;;;;;5138331;27;20483;-84
2023/05/16 08:05:57;;;;;;;8.43;1.40;;;;;;;;;;5138138;27;20081;-83
2023/05/16 08:08:23;;;;;;;7.25;1.33;;;;;;;;;;5156458;27;20039;-86
2023/05/16 08:10:49;;;;;;;10.70;1.52;;;;;;;;;;5137377;27;20157;-85
2023/05/16 08:13:15;;;;;;;9.95;2.40;;;;;;;;;;5144878;27;20056;-84
2023/05/16 08:15:42;;;;;;;12.75;1.40;;;;;;;;;;5135136;27;20479;-86
2023/05/16 08:18:13;;;;;;;16.15;1.83;;;;;;;;;;5156476;27;20050;-86
2023/05/16 08:20:40;;;;;;;3.47;0.70;;;;;;;;;;5121677;27;20043;-85
2023/05/16 08:23:06;;;;;;;6.57;0.75;;;;;;;;;;5153271;27;20066;-83
2023/05/16 08:25:33;;;;;;;5.40;0.98;;;;;;;;;;5137783;27;20038;-86
2023/05/16 08:28:00;;;;;;;3.55;0.95;;;;;;;;;;5156190;27;20038;-79
2023/05/16 08:30:26;;;;;;;3.85;0.90;;;;;;;;;;5125313;27;20762;-82
2023/05/16 08:32:53;;;;;;;3.00;0.77;;;;;;;;;;5127064;27;20039;-78
2023/05/16 08:35:19;;;;;;;2.92;0.75;;;;;;;;;;5149782;27;20050;-79
2023/05/16 08:37:45;;;;;;;6.97;1.33;;;;;;;;;;5124888;27;20042;-84
2023/05/16 08:40:13;;;;;;;11.57;1.40;;;;;;;;;;5123365;27;20043;-81
2023/05/16 08:42:39;;;;;;;4.88;0.93;;;;;;;;;;5136736;27;20114;-78
2023/05/16 08:45:06;;;;;;;7.85;1.30;;;;;;;;;;5137607;27;20395;-84
2023/05/16 08:47:35;;;;;;;7.18;1.15;;;;;;;;;;5137373;27;20093;-79
2023/05/16 08:50:03;;;;;;;7.13;1.17;;;;;;;;;;5137436;27;20043;-85
2023/05/16 08:52:30;;;;;;;7.22;1.27;;;;;;;;;;5144449;27;20074;-85
2023/05/16 08:54:58;;;;;;;5.75;1.35;;;;;;;;;;5145951;27;20194;-90
2023/05/16 08:57:26;;;;;;;6.80;1.10;;;;;;;;;;5133703;27;20039;-87
2023/05/16 08:59:53;;;;;;;6.30;1.20;;;;;;;;;;5122726;27;20035;-86
2023/05/16 09:02:21;;;;;;;8.13;1.55;;;;;;;;;;5155082;27;20053;-85
2023/05/16 09:04:48;;;;;;;5.70;1.30;;;;;;;;;;5136240;27;20038;-84
2023/05/16 09:07:14;;;;;;;5.85;0.95;;;;;;;;;;5133191;27;20031;-85
2023/05/16 09:09:41;;;;;;;9.32;1.83;;;;;;;;;;5126101;27;20384;-85
2023/05/16 09:12:07;;;;;;;7.25;1.15;;;;;;;;;;5135126;27;20074;-87
2023/05/16 09:14:34;;;;;;;8.55;1.30;;;;;;;;;;5118510;27;20042;-85
2023/05/16 09:17:05;;;;;;;6.32;1.05;;;;;;;;;;5136240;27;20095;-86
2023/05/16 09:19:41;;;;;;;5.35;1.27;;;;;;;;;;5122598;27;20047;-83
2023/05/16 09:22:12;;;;;;;5.75;1.17;;;;;;;;;;5136605;27;20043;-83
2023/05/16 09:24:41;;;;;;;8.20;1.40;;;;;;;;;;5134361;27;20391;-83
2023/05/16 09:27:12;;;;;;;9.45;1.35;;;;;;;;;;5119788;27;20479;-85
2023/05/16 09:29:42;;;;;;;9.45;1.15;;;;;;;;;;5130444;27;20035;-83
2023/05/16 09:32:11;;;;;;;7.10;1.30;;;;;;;;;;5128614;27;20050;-84
2023/05/16 09:34:38;;;;;;;7.95;1.15;;;;;;;;;;5140190;27;20462;-84
2023/05/16 09:37:04;;;;;;;10.18;1.10;;;;;;;;;;5153677;27;20049;-83
2023/05/16 09:39:30;;;;;;;6.90;1.45;;;;;;;;;;5114242;27;20042;-85
2023/05/16 09:41:58;;;;;;;13.40;1.52;;;;;;;;;;5120114;27;20110;-82
2023/05/16 09:44:24;;;;;;;15.00;2.05;;;;;;;;;;5129648;27;20546;-83
2023/05/16 09:46:53;;;;;;;7.63;1.30;;;;;;;;;;5122999;27;20047;-86
2023/05/16 09:49:19;;;;;;;9.30;1.30;;;;;;;;;;5145307;27;20046;-84
2023/05/16 09:51:45;;;;;;;6.05;1.10;;;;;;;;;;5131040;27;20046;-87
2023/05/16 09:54:11;;;;;;;10.63;1.30;;;;;;;;;;5135944;27;20034;-86
2023/05/16 09:56:50;;;;;;;8.88;1.48;;;;;;;;;;5110195;28;20138;-83
2023/05/16 09:59:16;;;;;;;5.43;1.40;;;;;;;;;;5078648;28;20126;-83
2023/05/16 10:01:43;;;;;;;17.15;1.65;;;;;;;;;;5126032;27;20571;-84
2023/05/16 10:04:12;;;;;;;4.72;1.05;;;;;;;;;;5118203;27;20039;-86
2023/05/16 10:06:41;;;;;;;8.55;1.40;;;;;;;;;;5113918;27;20044;-85
2023/05/16 10:09:07;;;;;;;14.35;1.65;;;;;;;;;;5132707;27;20418;-84
2023/05/16 10:11:34;;;;;;;7.03;1.30;;;;;;;;;;5111382;28;20434;-85
2023/05/16 10:14:01;;;;;;;7.30;1.42;;;;;;;;;;5112359;27;20132;-86
2023/05/16 10:16:27;;;;;;;8.00;1.50;;;;;;;;;;5115029;28;20071;-85
2023/05/16 10:18:53;;;;;;;6.63;1.10;;;;;;;;;;5110445;28;20043;-88
2023/05/16 10:21:21;;;;;;;6.78;1.50;;;;;;;;;;5115385;28;20042;-84
2023/05/16 10:23:48;;;;;;;7.55;1.17;;;;;;;;;;5133459;27;20071;-81
2023/05/16 10:26:16;;;;;;;8.77;1.30;;;;;;;;;;5116871;28;20039;-85
2023/05/16 10:28:42;;;;;;;7.18;1.10;;;;;;;;;;5130381;27;20387;-83
2023/05/16 10:31:09;;;;;;;5.25;1.50;;;;;;;;;;5132976;27;20082;-84
2023/05/16 10:33:36;;;;;;;8.82;1.65;;;;;;;;;;5135565;27;20074;-83
2023/05/16 10:36:04;;;;;;;6.97;1.20;;;;;;;;;;5135038;27;20043;-81
2023/05/16 10:38:30;;;;;;;7.57;1.33;;;;;;;;;;5121409;27;20085;-85
2023/05/16 10:40:56;;;;;;;10.60;1.38;;;;;;;;;;5133523;27;20042;-86
2023/05/16 10:43:26;;;;;;;10.35;1.60;;;;;;;;;;5127079;27;20483;-84
2023/05/16 10:46:08;;;;;;;8.73;1.10;;;;;;;;;;5136893;27;20524;-85
2023/05/16 10:48:38;;;;;;;7.78;1.30;;;;;;;;;;5116364;27;20048;-85
2023/05/16 10:51:24;;;;;;;6.65;1.50;;;;;;;;;;5131241;27;20031;-83
2023/05/16 10:53:54;;;;;;;8.50;1.63;;;;;;;;;;5134368;27;20043;-85
2023/05/16 10:56:24;;;;;;;5.53;1.30;;;;;;;;;;5109198;28;20059;-85
2023/05/16 10:58:52;;;;;;;6.38;1.42;;;;;;;;;;5131902;27;20130;-83
2023/05/16 11:01:28;;;;;;;5.72;1.20;;;;;;;;;;5102835;27;20373;-87
2023/05/16 11:03:59;;;;;;;5.97;1.30;;;;;;;;;;5116371;28;20088;-83
2023/05/16 11:06:31;;;;;;;9.30;1.45;;;;;;;;;;5115186;28;20377;-80
2023/05/16 11:09:25;;;;;;;7.93;1.48;;;;;;;;;;5109552;28;20440;-77
2023/05/16 11:11:52;;;;;;;7.03;1.40;;;;;;;;;;5113326;28;20052;-81
2023/05/16 11:14:22;;;;;;;6.78;1.58;;;;;;;;;;5125763;27;20422;-82
2023/05/16 11:17:09;;;;;;;8.48;1.30;;;;;;;;;;5115736;28;20078;-84
2023/05/16 11:19:35;;;;;;;8.65;1.30;;;;;;;;;;5101349;28;20035;-78
2023/05/16 11:22:06;;;;;;;7.97;1.83;;;;;;;;;;5131748;27;20074;-80
2023/05/16 11:24:32;;;;;;;2.72;0.90;;;;;;;;;;5129866;27;20050;-81
2023/05/16 11:27:01;;;;;;;3.50;1.10;;;;;;;;;;5128336;27;20039;-77
2023/05/16 11:29:34;;;;;;;6.28;1.33;;;;;;;;;;5117284;27;20148;-78
2023/05/16 11:32:01;;;;;;;5.03;1.15;;;;;;;;;;5120474;27;20051;-77
2023/05/16 11:34:27;;;;;;;5.18;1.00;;;;;;;;;;5136890;27;20502;-80
2023/05/16 11:36:55;;;;;;;6.38;1.20;;;;;;;;;;5097792;28;20040;-80
2023/05/16 11:39:23;;;;;;;9.27;1.08;;;;;;;;;;5111757;28;20123;-87
2023/05/16 11:41:50;;;;;;;7.97;1.10;;;;;;;;;;5093407;28;20485;-87
2023/05/16 11:44:16;;;;;;;4.78;0.95;;;;;;;;;;5112702;27;20044;-84
2023/05/16 11:46:42;;;;;;;4.13;1.10;;;;;;;;;;5124736;27;20369;-84
2023/05/16 11:49:12;;;;;;;5.03;1.05;;;;;;;;;;5115980;28;20035;-83
2023/05/16 11:51:42;;;;;;;4.55;0.85;;;;;;;;;;5121392;27;20118;-83
2023/05/16 11:54:12;;;;;;;5.30;1.10;;;;;;;;;;5094709;28;20077;-79
2023/05/16 11:56:42;;;;;;;5.03;1.20;;;;;;;;;;5128331;27;20050;-78
2023/05/16 11:59:08;;;;;;;5.15;1.02;;;;;;;;;;5115692;28;20068;-84
2023/05/16 12:01:36;;;;;;;7.47;1.52;;;;;;;;;;5133635;27;20031;-84
2023/05/16 12:04:03;;;;;;;6.65;1.45;;;;;;;;;;5130358;27;20043;-83
2023/05/16 12:06:30;;;;;;;5.32;1.13;;;;;;;;;;5123243;27;20043;-87
2023/05/16 12:08:56;;;;;;;6.30;1.10;;;;;;;;;;5113858;28;20046;-83
2023/05/16 12:11:25;;;;;;;6.93;1.20;;;;;;;;;;5114463;28;20495;-86
2023/05/16 12:13:52;;;;;;;8.13;1.08;;;;;;;;;;5125560;27;20047;-87
2023/05/16 12:16:18;;;;;;;5.25;1.20;;;;;;;;;;5126469;27;20039;-84
2023/05/16 12:18:44;;;;;;;7.82;1.15;;;;;;;;;;5114605;27;20052;-84
2023/05/16 12:21:10;;;;;;;6.15;1.48;;;;;;;;;;5105944;27;20074;-85
2023/05/16 12:23:36;;;;;;;6.95;1.27;;;;;;;;;;5122866;27;20083;-86
2023/05/16 12:26:07;;;;;;;3.90;1.13;;;;;;;;;;5118225;27;20050;-82
2023/05/16 12:28:34;;;;;;;6.05;1.30;;;;;;;;;;5123199;27;20046;-84
2023/05/16 12:31:00;;;;;;;4.82;1.27;;;;;;;;;;5117968;27;20039;-87
2023/05/16 12:33:27;;;;;;;4.88;1.75;;;;;;;;;;5117436;27;20419;-83
2023/05/16 12:35:53;;;;;;;6.05;1.40;;;;;;;;;;5100731;27;20541;-79
2023/05/16 12:38:20;;;;;;;9.52;1.70;;;;;;;;;;5126528;27;20043;-78
2023/05/16 12:40:47;;;;;;;5.72;1.65;;;;;;;;;;5124083;27;20043;-77
2023/05/16 12:43:14;;;;;;;7.43;1.40;;;;;;;;;;5096262;28;20042;-78
2023/05/16 12:45:41;;;;;;;11.00;2.30;;;;;;;;;;5114238;28;20079;-78
2023/05/16 12:48:13;;;;;;;6.20;1.50;;;;;;;;;;5118568;27;20041;-76
2023/05/16 12:50:40;;;;;;;7.45;1.75;;;;;;;;;;5118664;27;20118;-77
2023/05/16 12:53:11;;;;;;;7.13;1.88;;;;;;;;;;5115687;27;20047;-79
2023/05/16 12:55:37;;;;;;;7.38;1.85;;;;;;;;;;5133981;27;20569;-78
2023/05/16 12:58:03;;;;;;;7.63;2.10;;;;;;;;;;5132298;27;20047;-82
2023/05/16 13:00:30;;;;;;;7.60;2.30;;;;;;;;;;5120877;27;20100;-79
2023/05/16 13:02:57;;;;;;;7.00;2.10;;;;;;;;;;5119143;27;20476;-77
2023/05/16 13:05:23;;;;;;;8.02;2.78;;;;;;;;;;5105046;27;20043;-80
2023/05/16 13:07:53;;;;;;;8.07;2.25;;;;;;;;;;5112424;28;20032;-77
2023/05/16 13:10:19;;;;;;;6.68;2.65;;;;;;;;;;5121305;27;20080;-79
2023/05/16 13:12:46;;;;;;;7.18;2.60;;;;;;;;;;5126132;27;20048;-77
2023/05/16 13:15:12;;;;;;;5.85;2.40;;;;;;;;;;5113845;28;20040;-79
2023/05/16 13:17:39;;;;;;;10.93;2.63;;;;;;;;;;5123931;27;20035;-77
2023/05/16 13:20:08;;;;;;;7.80;2.53;;;;;;;;;;5104692;28;20041;-80
2023/05/16 13:22:34;;;;;;;6.60;2.40;;;;;;;;;;5116122;27;20446;-78
2023/05/16 13:25:01;;;;;;;9.80;2.50;;;;;;;;;;5123173;27;20050;-77
2023/05/16 13:27:27;;;;;;;12.52;2.30;;;;;;;;;;5115244;27;20038;-75
2023/05/16 13:29:53;;;;;;;7.30;2.67;;;;;;;;;;5133239;27;20491;-77
2023/05/16 13:32:19;;;;;;;13.32;2.33;;;;;;;;;;5101722;28;20036;-77
2023/05/16 13:34:45;;;;;;;11.10;2.47;;;;;;;;;;5118064;27;20047;-84
2023/05/16 13:37:11;;;;;;;12.52;2.75;;;;;;;;;;5112035;28;20046;-84
2023/05/16 13:39:37;;;;;;;11.43;3.05;;;;;;;;;;5127622;27;20047;-78
2023/05/16 13:42:03;;;;;;;15.23;3.47;;;;;;;;;;5117998;27;20044;-83
2023/05/16 13:44:29;;;;;;;12.40;3.22;;;;;;;;;;5127879;27;20509;-84
2023/05/16 13:46:59;;;;;;;29.85;3.45;;;;;;;;;;5095193;28;20039;-85
2023/05/16 13:49:25;;;;;;;9.63;2.95;;;;;;;;;;5113271;28;20396;-83
2023/05/16 13:51:51;;;;;;;6.68;2.05;;;;;;;;;;5101789;27;20043;-85
2023/05/16 13:54:21;;;;;;;8.13;2.22;;;;;;;;;;5126174;27;20088;-85
2023/05/16 13:56:47;;;;;;;10.27;2.13;;;;;;;;;;5132191;27;20055;-82
2023/05/16 13:59:14;;;;;;;6.47;2.58;;;;;;;;;;5123595;27;20036;-84
2023/05/16 14:01:40;;;;;;;8.73;2.40;;;;;;;;;;5109509;28;20118;-83
2023/05/16 14:04:06;;;;;;;8.02;2.53;;;;;;;;;;5121107;27;20475;-84
2023/05/16 14:06:33;;;;;;;11.23;2.80;;;;;;;;;;5116661;27;20036;-85
2023/05/16 14:08:59;;;;;;;6.60;2.70;;;;;;;;;;5128922;27;20110;-86
2023/05/16 14:11:26;;;;;;;10.93;2.80;;;;;;;;;;5131300;27;20118;-84
2023/05/16 14:13:53;;;;;;;11.02;3.03;;;;;;;;;;5090452;28;20048;-83
2023/05/16 14:16:19;;;;;;;7.97;3.30;;;;;;;;;;5118020;27;20064;-83
2023/05/16 14:18:45;;;;;;;11.23;3.17;;;;;;;;;;5125064;27;20043;-85
2023/05/16 14:21:12;;;;;;;8.13;3.22;;;;;;;;;;5099204;28;20032;-83
2023/05/16 14:23:38;;;;;;;9.43;3.53;;;;;;;;;;5122358;28;20039;-82
2023/05/16 14:26:05;;;;;;;14.35;3.13;;;;;;;;;;5124909;28;20092;-85
2023/05/16 14:28:34;;;;;;;6.75;2.88;;;;;;;;;;5095302;28;20050;-84
2023/05/16 14:31:00;;;;;;;6.30;2.80;;;;;;;;;;5115743;28;20067;-85
2023/05/16 14:33:26;;;;;;;12.93;3.20;;;;;;;;;;5099583;28;20040;-82
2023/05/16 14:35:52;;;;;;;10.48;3.20;;;;;;;;;;5121467;28;20054;-83
2023/05/16 14:38:19;;;;;;;12.57;2.80;;;;;;;;;;5126772;28;20045;-85